Time;durP1;ratioP1;P1;durP2;ratioP2;P2;SDS_P1;SDS_P2;PMS_P1;PMS_P2;Temp;Humidity;BMP_temperature;BMP_pressure;BME280_temperature;BME280_humidity;BME280_pressure;Samples;Min_cycle;Max_cycle;Signal;HPM_P1;HPM_P2
2021/12/15 00:00:15;;;;;;;18.70;10.75;;;;;;;;;;4898383;29;20035;-80
2021/12/15 00:02:44;;;;;;;26.38;10.88;;;;;;;;;;4898008;29;20056;-80
2021/12/15 00:05:10;;;;;;;21.38;10.75;;;;;;;;;;4881131;29;20039;-80
2021/12/15 00:07:36;;;;;;;19.02;10.82;;;;;;;;;;4897851;29;20108;-80
2021/12/15 00:10:04;;;;;;;26.73;11.25;;;;;;;;;;4896960;29;20100;-80
2021/12/15 00:12:30;;;;;;;20.13;11.25;;;;;;;;;;4881478;29;20497;-80
2021/12/15 00:14:56;;;;;;;19.55;10.90;;;;;;;;;;4879160;29;20031;-80
2021/12/15 00:17:23;;;;;;;22.00;11.63;;;;;;;;;;4879466;29;20058;-80
2021/12/15 00:19:50;;;;;;;23.98;11.38;;;;;;;;;;4879032;29;20017;-80
2021/12/15 00:22:16;;;;;;;20.17;11.15;;;;;;;;;;4879250;29;20489;-80
2021/12/15 00:24:42;;;;;;;20.77;11.15;;;;;;;;;;4883116;29;20025;-80
2021/12/15 00:27:09;;;;;;;24.10;9.27;;;;;;;;;;4897135;29;20047;-80
2021/12/15 00:29:35;;;;;;;18.33;9.55;;;;;;;;;;4897395;29;20039;-80
2021/12/15 00:32:04;;;;;;;17.02;10.18;;;;;;;;;;4897856;29;20036;-80
2021/12/15 00:34:32;;;;;;;20.10;9.43;;;;;;;;;;4897538;29;20025;-80
2021/12/15 00:36:58;;;;;;;20.73;10.13;;;;;;;;;;4897531;29;20080;-80
2021/12/15 00:39:25;;;;;;;18.98;10.13;;;;;;;;;;4897004;29;20505;-80
2021/12/15 00:41:51;;;;;;;17.65;9.23;;;;;;;;;;4897373;29;20037;-80
2021/12/15 00:44:18;;;;;;;23.15;11.13;;;;;;;;;;4896596;29;20033;-80
2021/12/15 00:46:44;;;;;;;16.45;10.18;;;;;;;;;;4896965;29;20040;-79
2021/12/15 00:49:11;;;;;;;17.95;10.10;;;;;;;;;;4897536;29;20424;-80
2021/12/15 00:51:38;;;;;;;15.77;9.30;;;;;;;;;;4880395;29;20665;-80
2021/12/15 00:54:04;;;;;;;17.58;9.27;;;;;;;;;;4897073;29;20366;-80
2021/12/15 00:56:30;;;;;;;20.65;10.15;;;;;;;;;;4897130;29;20054;-80
2021/12/15 00:58:57;;;;;;;17.85;9.98;;;;;;;;;;4880595;29;20033;-80
2021/12/15 01:01:23;;;;;;;20.95;9.75;;;;;;;;;;4877870;29;20029;-80
2021/12/15 01:03:50;;;;;;;22.73;10.35;;;;;;;;;;4878510;29;20044;-79
2021/12/15 01:06:18;;;;;;;17.02;9.63;;;;;;;;;;4878760;29;20466;-80
2021/12/15 01:08:46;;;;;;;17.33;10.77;;;;;;;;;;4878203;29;20028;-80
2021/12/15 01:11:44;;;;;;;17.50;10.20;;;;;;;;;;4880338;29;20085;-80
2021/12/15 01:20:14;;;;;;;19.02;10.10;;;;;;;;;;4878489;29;20033;-80
2021/12/15 01:22:39;;;;;;;19.05;10.25;;;;;;;;;;4876218;29;20505;-80
2021/12/15 01:25:16;;;;;;;19.73;9.03;;;;;;;;;;4878379;29;20178;-80
2021/12/15 01:27:43;;;;;;;19.35;9.98;;;;;;;;;;4878227;29;20112;-80
2021/12/15 01:30:10;;;;;;;20.33;10.82;;;;;;;;;;4878203;29;20047;-80
2021/12/15 01:32:37;;;;;;;20.05;9.75;;;;;;;;;;4878080;29;20033;-80
2021/12/15 01:35:03;;;;;;;20.52;9.15;;;;;;;;;;4863377;29;22089;-80
2021/12/15 01:37:29;;;;;;;16.58;10.23;;;;;;;;;;4895769;29;20032;-80
2021/12/15 01:39:56;;;;;;;19.98;9.50;;;;;;;;;;4895849;29;20040;-80
2021/12/15 01:42:25;;;;;;;17.55;9.55;;;;;;;;;;4880438;29;20029;-80
2021/12/15 01:47:35;;;;;;;15.25;8.52;;;;;;;;;;4896742;29;20056;-80
2021/12/15 01:50:01;;;;;;;15.00;8.38;;;;;;;;;;4897175;29;20025;-80
2021/12/15 01:52:29;;;;;;;13.85;8.07;;;;;;;;;;4890506;29;20065;-80
2021/12/15 01:55:05;;;;;;;15.13;8.15;;;;;;;;;;4878026;29;20126;-80
2021/12/15 01:57:34;;;;;;;13.77;7.57;;;;;;;;;;4886482;29;20135;-80
2021/12/15 02:00:00;;;;;;;18.85;8.15;;;;;;;;;;4899942;29;20025;-80
2021/12/15 02:02:26;;;;;;;11.88;7.63;;;;;;;;;;4900778;29;20025;-80
2021/12/15 02:04:53;;;;;;;13.95;7.45;;;;;;;;;;4900038;29;20033;-80
2021/12/15 02:07:20;;;;;;;16.92;9.18;;;;;;;;;;4892453;29;20508;-80
2021/12/15 02:12:17;;;;;;;15.32;8.68;;;;;;;;;;4900421;29;20045;-80
2021/12/15 02:14:43;;;;;;;15.50;8.45;;;;;;;;;;4900205;29;20036;-80
2021/12/15 02:17:09;;;;;;;16.20;9.15;;;;;;;;;;4899952;29;20059;-80
2021/12/15 02:19:35;;;;;;;14.32;8.30;;;;;;;;;;4900075;29;20021;-80
2021/12/15 02:22:01;;;;;;;15.65;8.38;;;;;;;;;;4899808;29;20072;-80
2021/12/15 02:24:29;;;;;;;20.65;11.07;;;;;;;;;;4899560;29;20064;-80
2021/12/15 02:26:59;;;;;;;20.20;11.43;;;;;;;;;;4899799;29;20104;-80
2021/12/15 02:29:26;;;;;;;25.95;13.57;;;;;;;;;;4899645;29;20385;-80
2021/12/15 02:39:36;;;;;;;32.97;16.55;;;;;;;;;;4899013;29;20124;-80
2021/12/15 02:42:02;;;;;;;35.80;18.10;;;;;;;;;;4898273;29;20060;-80
2021/12/15 02:44:28;;;;;;;33.35;18.42;;;;;;;;;;4898960;29;20465;-80
2021/12/15 02:46:55;;;;;;;35.30;20.63;;;;;;;;;;4899456;29;20056;-80
2021/12/15 02:49:26;;;;;;;35.17;19.02;;;;;;;;;;4899764;29;20036;-80
2021/12/15 02:51:54;;;;;;;38.97;19.65;;;;;;;;;;4894211;29;20524;-80
2021/12/15 02:54:21;;;;;;;33.78;19.10;;;;;;;;;;4880715;29;20036;-80
2021/12/15 02:56:49;;;;;;;35.05;17.95;;;;;;;;;;4882856;29;20523;-80
2021/12/15 02:59:17;;;;;;;34.50;17.70;;;;;;;;;;4880559;29;20036;-80
2021/12/15 03:07:05;;;;;;;34.30;19.00;;;;;;;;;;4879454;29;20401;-80
2021/12/15 03:15:19;;;;;;;31.48;18.17;;;;;;;;;;4880490;29;20481;-80
2021/12/15 03:15:29;;;;;;;29.05;16.38;;;;;;;;;;4884513;29;20461;-79
2021/12/15 03:18:00;;;;;;;29.00;15.90;;;;;;;;;;4880249;29;20021;-80
2021/12/15 03:20:28;;;;;;;35.13;18.67;;;;;;;;;;4880807;29;20056;-79
2021/12/15 03:22:54;;;;;;;39.30;16.58;;;;;;;;;;4880112;29;20040;-80
2021/12/15 03:25:20;;;;;;;31.50;16.85;;;;;;;;;;4880151;29;20029;-80
2021/12/15 03:36:34;;;;;;;28.05;15.70;;;;;;;;;;4804516;29;20118;-79
2021/12/15 03:39:00;;;;;;;32.28;15.82;;;;;;;;;;4804318;29;20057;-79
2021/12/15 03:41:26;;;;;;;27.55;15.63;;;;;;;;;;4804225;29;20034;-79
2021/12/15 03:43:52;;;;;;;32.75;16.00;;;;;;;;;;4804437;29;20047;-79
2021/12/15 03:46:18;;;;;;;25.85;14.27;;;;;;;;;;4803992;29;20102;-79
2021/12/15 03:48:45;;;;;;;35.92;14.57;;;;;;;;;;4821572;29;20511;-79
2021/12/15 03:51:13;;;;;;;27.60;14.10;;;;;;;;;;4804055;29;20043;-79
2021/12/15 03:53:39;;;;;;;25.52;13.63;;;;;;;;;;4804383;29;20027;-79
2021/12/15 03:56:08;;;;;;;23.52;13.05;;;;;;;;;;4803706;29;20515;-79
2021/12/15 03:58:34;;;;;;;25.67;12.73;;;;;;;;;;4817060;29;20038;-79
2021/12/15 04:01:01;;;;;;;24.73;12.52;;;;;;;;;;4822485;29;20571;-79
2021/12/15 04:03:32;;;;;;;23.13;12.18;;;;;;;;;;4820994;29;20467;-79
2021/12/15 04:05:59;;;;;;;23.95;11.55;;;;;;;;;;4803177;29;20041;-79
2021/12/15 04:08:26;;;;;;;23.70;11.13;;;;;;;;;;4807946;29;20109;-79
2021/12/15 04:10:52;;;;;;;18.55;10.40;;;;;;;;;;4865434;29;20045;-79
2021/12/15 04:13:18;;;;;;;21.92;12.13;;;;;;;;;;4879620;29;20025;-80
2021/12/15 04:15:54;;;;;;;24.05;11.75;;;;;;;;;;4879309;29;20386;-79
2021/12/15 04:18:21;;;;;;;23.67;12.57;;;;;;;;;;4879035;29;20018;-79
2021/12/15 04:20:47;;;;;;;31.80;16.60;;;;;;;;;;4879465;29;20073;-79
2021/12/15 04:23:18;;;;;;;34.47;17.90;;;;;;;;;;4879000;29;20047;-79
2021/12/15 04:25:45;;;;;;;52.40;18.88;;;;;;;;;;4878716;29;20040;-79
2021/12/15 04:28:13;;;;;;;71.10;21.67;;;;;;;;;;4890966;29;20036;-80
2021/12/15 04:30:43;;;;;;;89.13;24.25;;;;;;;;;;4897794;29;20037;-79
2021/12/15 04:33:13;;;;;;;61.72;23.05;;;;;;;;;;4897821;29;20025;-79
2021/12/15 04:35:40;;;;;;;70.95;24.33;;;;;;;;;;4897838;29;20433;-79
2021/12/15 04:38:06;;;;;;;61.45;23.73;;;;;;;;;;4880270;29;20409;-79
2021/12/15 04:40:33;;;;;;;56.35;23.13;;;;;;;;;;4896880;29;20032;-79
2021/12/15 04:42:59;;;;;;;61.42;21.50;;;;;;;;;;4897624;29;20048;-79
2021/12/15 04:45:26;;;;;;;53.95;21.90;;;;;;;;;;4896567;29;20092;-79
2021/12/15 04:47:52;;;;;;;44.50;21.02;;;;;;;;;;4897898;29;20028;-79
2021/12/15 04:50:23;;;;;;;49.22;22.38;;;;;;;;;;4897243;29;20043;-79
2021/12/15 04:52:49;;;;;;;36.58;19.00;;;;;;;;;;4897147;29;20032;-80
2021/12/15 04:55:17;;;;;;;77.82;20.00;;;;;;;;;;4896793;29;20032;-79
2021/12/15 04:57:43;;;;;;;75.03;20.83;;;;;;;;;;4897149;29;20119;-79
2021/12/15 05:00:11;;;;;;;65.50;21.02;;;;;;;;;;4896702;29;20036;-79
2021/12/15 05:02:37;;;;;;;62.72;18.45;;;;;;;;;;4897318;29;20060;-79
2021/12/15 05:05:04;;;;;;;44.25;15.95;;;;;;;;;;4892621;29;20028;-83
2021/12/15 05:07:30;;;;;;;41.13;17.05;;;;;;;;;;4878151;29;20052;-79
2021/12/15 05:09:57;;;;;;;30.15;15.98;;;;;;;;;;4878325;29;20029;-79
2021/12/15 05:12:23;;;;;;;31.83;14.93;;;;;;;;;;4861743;29;20036;-79
2021/12/15 05:14:49;;;;;;;30.98;16.55;;;;;;;;;;4861491;29;20401;-80
2021/12/15 05:17:16;;;;;;;32.03;16.00;;;;;;;;;;4878362;29;20029;-80
2021/12/15 05:19:45;;;;;;;25.73;14.38;;;;;;;;;;4878358;29;20089;-81
2021/12/15 05:22:12;;;;;;;25.65;13.98;;;;;;;;;;4877900;29;20446;-82
2021/12/15 05:24:38;;;;;;;24.85;14.00;;;;;;;;;;4886226;29;20104;-81
2021/12/15 05:27:09;;;;;;;25.13;14.27;;;;;;;;;;4896683;29;20053;-79
2021/12/15 05:29:35;;;;;;;22.88;13.63;;;;;;;;;;4895307;29;20076;-77
2021/12/15 05:32:02;;;;;;;23.25;12.73;;;;;;;;;;4896647;29;20104;-79
2021/12/15 05:34:28;;;;;;;23.60;14.00;;;;;;;;;;4897012;29;20116;-79
2021/12/15 05:36:54;;;;;;;33.35;13.45;;;;;;;;;;4896789;29;20025;-79
2021/12/15 05:39:21;;;;;;;24.23;13.40;;;;;;;;;;4896532;29;20111;-81
2021/12/15 05:41:47;;;;;;;24.67;14.10;;;;;;;;;;4894267;29;20396;-78
2021/12/15 05:44:14;;;;;;;22.40;13.93;;;;;;;;;;4867081;29;20410;-78
2021/12/15 05:46:40;;;;;;;24.27;13.93;;;;;;;;;;4877652;29;20032;-79
2021/12/15 05:49:06;;;;;;;22.65;13.45;;;;;;;;;;4881489;29;20029;-80
2021/12/15 05:51:32;;;;;;;26.02;13.60;;;;;;;;;;4885203;29;20077;-80
2021/12/15 05:53:58;;;;;;;19.98;13.13;;;;;;;;;;4879122;29;20401;-81
2021/12/15 05:56:24;;;;;;;24.85;14.15;;;;;;;;;;4877676;29;20420;-80
2021/12/15 05:58:50;;;;;;;21.90;13.45;;;;;;;;;;4893155;29;20081;-83
2021/12/15 06:01:17;;;;;;;24.88;14.80;;;;;;;;;;4895483;29;20035;-79
2021/12/15 06:03:44;;;;;;;25.95;14.35;;;;;;;;;;4897183;29;20032;-83
2021/12/15 06:06:10;;;;;;;27.73;16.45;;;;;;;;;;4896342;29;20540;-80
2021/12/15 06:08:36;;;;;;;28.90;16.38;;;;;;;;;;4896367;29;20063;-80
2021/12/15 06:11:02;;;;;;;27.17;14.60;;;;;;;;;;4895658;29;20039;-80
2021/12/15 06:13:29;;;;;;;24.67;14.07;;;;;;;;;;4896222;29;20418;-79
2021/12/15 06:15:56;;;;;;;26.88;14.88;;;;;;;;;;4896531;29;20057;-79
2021/12/15 06:18:23;;;;;;;25.92;13.90;;;;;;;;;;4896015;29;20425;-79
2021/12/15 06:20:50;;;;;;;25.20;15.18;;;;;;;;;;4877832;29;20104;-81
2021/12/15 06:23:18;;;;;;;28.85;15.55;;;;;;;;;;4886271;29;20032;-79
2021/12/15 06:25:46;;;;;;;59.50;16.38;;;;;;;;;;4878940;29;20517;-81
2021/12/15 06:28:12;;;;;;;29.23;16.00;;;;;;;;;;4892574;29;20033;-80
2021/12/15 06:30:39;;;;;;;29.60;16.45;;;;;;;;;;4884916;29;20569;-82
2021/12/15 06:33:06;;;;;;;30.08;15.63;;;;;;;;;;4897136;29;20074;-82
2021/12/15 06:35:32;;;;;;;26.70;15.95;;;;;;;;;;4896594;29;20446;-82
2021/12/15 06:37:59;;;;;;;24.83;14.07;;;;;;;;;;4896268;29;20104;-82
2021/12/15 06:40:25;;;;;;;27.73;16.05;;;;;;;;;;4896185;29;20024;-81
2021/12/15 06:42:51;;;;;;;25.83;15.65;;;;;;;;;;4898359;29;20031;-82
2021/12/15 06:45:21;;;;;;;26.75;15.52;;;;;;;;;;4899690;29;20441;-82
2021/12/15 06:58:30;;;;;;;26.80;15.25;;;;;;;;;;4899491;29;20060;-81
2021/12/15 07:01:01;;;;;;;30.80;17.63;;;;;;;;;;4899442;29;20025;-82
2021/12/15 07:03:27;;;;;;;27.48;14.80;;;;;;;;;;4898985;29;20471;-82
2021/12/15 07:05:57;;;;;;;30.88;17.50;;;;;;;;;;4899158;29;20112;-82
2021/12/15 07:08:24;;;;;;;26.33;14.70;;;;;;;;;;4899281;29;20080;-82
2021/12/15 07:10:52;;;;;;;28.63;14.18;;;;;;;;;;4899266;29;20029;-80
2021/12/15 07:13:18;;;;;;;27.15;12.82;;;;;;;;;;4898686;29;20068;-81
2021/12/15 07:15:46;;;;;;;37.08;15.15;;;;;;;;;;4899326;29;20103;-82
2021/12/15 07:18:14;;;;;;;26.67;13.85;;;;;;;;;;4887762;29;20485;-83
2021/12/15 07:23:14;;;;;;;23.50;12.73;;;;;;;;;;4893311;29;20125;-83
2021/12/15 07:25:47;;;;;;;27.92;14.00;;;;;;;;;;4888005;29;20093;-83
2021/12/15 07:28:14;;;;;;;31.30;17.85;;;;;;;;;;4880134;29;20391;-82
2021/12/15 07:30:41;;;;;;;31.58;17.15;;;;;;;;;;4879840;29;20117;-82
2021/12/15 07:33:08;;;;;;;40.65;18.95;;;;;;;;;;4885991;29;20052;-83
2021/12/15 07:35:34;;;;;;;35.58;18.98;;;;;;;;;;4885642;29;20568;-80
2021/12/15 07:38:00;;;;;;;33.05;18.13;;;;;;;;;;4888890;29;20029;-81
2021/12/15 07:40:27;;;;;;;30.67;17.85;;;;;;;;;;4896079;29;20374;-81
2021/12/15 07:43:07;;;;;;;38.35;19.13;;;;;;;;;;4880811;29;20393;-82
2021/12/15 07:45:39;;;;;;;31.15;17.15;;;;;;;;;;4890687;29;20116;-82
2021/12/15 07:48:05;;;;;;;;;;;;;;;;;;4894351;29;20047;-81
2021/12/15 07:50:32;;;;;;;33.17;16.90;;;;;;;;;;4882778;29;19912;-81
2021/12/15 07:52:58;;;;;;;42.95;20.25;;;;;;;;;;4890519;29;20036;-81
2021/12/15 07:55:25;;;;;;;33.40;17.83;;;;;;;;;;4896046;29;20445;-82
2021/12/15 07:57:52;;;;;;;31.02;18.27;;;;;;;;;;4896918;29;20041;-83
2021/12/15 08:00:18;;;;;;;33.33;17.40;;;;;;;;;;4888382;29;20040;-81
2021/12/15 08:02:45;;;;;;;34.45;17.23;;;;;;;;;;4879048;29;20025;-81
2021/12/15 08:05:11;;;;;;;33.63;19.33;;;;;;;;;;4879446;29;20037;-81
2021/12/15 08:07:37;;;;;;;34.33;17.42;;;;;;;;;;4879330;29;20021;-81
2021/12/15 08:10:06;;;;;;;30.05;16.60;;;;;;;;;;4879742;29;20033;-81
2021/12/15 08:12:32;;;;;;;28.17;16.52;;;;;;;;;;4879707;29;20025;-81
2021/12/15 08:14:58;;;;;;;31.15;16.70;;;;;;;;;;4879496;29;20029;-81
2021/12/15 08:17:24;;;;;;;28.42;15.00;;;;;;;;;;4879645;29;20100;-81
2021/12/15 08:19:50;;;;;;;25.15;14.90;;;;;;;;;;4879793;29;20025;-81
2021/12/15 08:22:16;;;;;;;24.08;14.52;;;;;;;;;;4880054;29;20045;-81
2021/12/15 08:24:42;;;;;;;24.52;14.07;;;;;;;;;;4879747;29;20044;-81
2021/12/15 08:27:08;;;;;;;24.60;15.30;;;;;;;;;;4879760;29;20037;-81
2021/12/15 08:29:35;;;;;;;30.90;18.27;;;;;;;;;;4895075;29;20040;-81
2021/12/15 08:32:01;;;;;;;31.38;19.40;;;;;;;;;;4878740;29;20502;-81
2021/12/15 08:34:27;;;;;;;48.92;21.90;;;;;;;;;;4879030;29;20036;-81
2021/12/15 08:36:54;;;;;;;45.58;25.85;;;;;;;;;;4890874;29;20029;-81
2021/12/15 08:39:21;;;;;;;41.85;21.10;;;;;;;;;;4897600;29;20533;-81
2021/12/15 08:41:47;;;;;;;49.40;22.20;;;;;;;;;;4890685;29;20029;-81
2021/12/15 08:44:13;;;;;;;37.47;20.15;;;;;;;;;;4895896;29;20040;-82
2021/12/15 08:46:41;;;;;;;35.92;17.95;;;;;;;;;;4900138;29;20020;-82
2021/12/15 08:49:09;;;;;;;42.45;22.95;;;;;;;;;;4892454;29;20032;-81
2021/12/15 08:51:36;;;;;;;67.57;35.95;;;;;;;;;;4882747;29;20108;-83
2021/12/15 08:54:08;;;;;;;57.15;32.90;;;;;;;;;;4875424;29;20029;-83
2021/12/15 08:56:34;;;;;;;;;;;;;;;;;;4886092;29;20051;-82
2021/12/15 08:59:00;;;;;;;37.85;21.77;;;;;;;;;;4892790;29;20129;-84
2021/12/15 09:01:26;;;;;;;44.70;25.55;;;;;;;;;;4894949;29;20040;-83
2021/12/15 09:03:53;;;;;;;37.67;21.88;;;;;;;;;;4885773;29;20112;-82
2021/12/15 09:06:19;;;;;;;36.15;22.00;;;;;;;;;;4878870;29;20421;-82
2021/12/15 09:08:46;;;;;;;31.95;19.08;;;;;;;;;;4879907;29;20417;-82
2021/12/15 09:11:13;;;;;;;36.80;22.95;;;;;;;;;;4878351;29;20063;-81
2021/12/15 09:13:40;;;;;;;38.25;23.27;;;;;;;;;;4878379;29;20025;-81
2021/12/15 09:16:07;;;;;;;37.78;22.60;;;;;;;;;;4892905;29;20069;-81
2021/12/15 09:18:34;;;;;;;57.45;31.65;;;;;;;;;;4890731;29;20029;-81
2021/12/15 09:21:00;;;;;;;52.78;27.95;;;;;;;;;;4878012;29;20033;-82
2021/12/15 09:23:27;;;;;;;46.17;25.90;;;;;;;;;;4896055;29;20052;-81
2021/12/15 09:25:54;;;;;;;40.20;22.00;;;;;;;;;;4896489;29;20024;-88
2021/12/15 09:28:20;;;;;;;33.90;19.95;;;;;;;;;;4884658;29;20100;-82
2021/12/15 09:30:47;;;;;;;39.80;24.55;;;;;;;;;;4894946;29;20088;-83
2021/12/15 09:33:33;;;;;;;35.55;22.20;;;;;;;;;;4879996;29;20081;-85
2021/12/15 09:36:00;;;;;;;42.53;26.60;;;;;;;;;;4887931;29;20420;-84
2021/12/15 09:38:26;;;;;;;47.90;26.67;;;;;;;;;;4884911;29;20032;-85
2021/12/15 09:40:54;;;;;;;44.33;25.95;;;;;;;;;;4873889;29;20036;-81
2021/12/15 09:43:20;;;;;;;44.58;25.85;;;;;;;;;;4880555;29;20107;-81
2021/12/15 09:46:00;;;;;;;50.72;28.65;;;;;;;;;;4887366;29;20037;-83
2021/12/15 10:02:09;;;;;;;51.03;29.00;;;;;;;;;;4878003;29;20093;-82
2021/12/15 10:18:55;;;;;;;42.60;24.55;;;;;;;;;;4887152;29;20039;-82
2021/12/15 10:21:24;;;;;;;45.35;25.63;;;;;;;;;;4897692;29;20031;-81
2021/12/15 10:23:51;;;;;;;44.78;27.58;;;;;;;;;;4881025;29;20013;-81
2021/12/15 10:26:17;;;;;;;42.55;24.23;;;;;;;;;;4899929;29;20032;-82
2021/12/15 10:28:48;;;;;;;48.85;25.83;;;;;;;;;;4899312;29;20080;-82
2021/12/15 10:31:15;;;;;;;44.55;25.80;;;;;;;;;;4866291;29;20259;-76
2021/12/15 10:33:44;;;;;;;46.92;27.38;;;;;;;;;;4881613;29;20049;-76
2021/12/15 10:36:12;;;;;;;50.45;28.55;;;;;;;;;;4882329;29;20550;-76
2021/12/15 10:38:44;;;;;;;48.28;28.08;;;;;;;;;;4893984;29;20083;-76
2021/12/15 10:41:10;;;;;;;47.95;26.02;;;;;;;;;;4896936;29;20029;-76
2021/12/15 10:43:39;;;;;;;55.28;26.35;;;;;;;;;;4889254;29;20037;-75
2021/12/15 10:46:13;;;;;;;47.33;26.27;;;;;;;;;;4890377;29;20088;-75
2021/12/15 10:48:45;;;;;;;43.47;25.63;;;;;;;;;;4888018;29;20394;-76
2021/12/15 10:51:20;;;;;;;43.42;25.42;;;;;;;;;;4889688;29;20424;-75
2021/12/15 10:53:47;;;;;;;44.75;25.77;;;;;;;;;;4891421;29;20032;-75
2021/12/15 10:56:14;;;;;;;39.97;24.90;;;;;;;;;;4892533;29;20083;-75
2021/12/15 10:58:42;;;;;;;44.20;24.90;;;;;;;;;;4899564;29;20116;-75
2021/12/15 11:01:27;;;;;;;41.67;24.17;;;;;;;;;;5101701;23;20053;-76
2021/12/15 11:03:53;;;;;;;40.42;24.15;;;;;;;;;;4910152;29;20024;-76
2021/12/15 11:06:27;;;;;;;43.03;24.30;;;;;;;;;;4899860;29;20040;-76
2021/12/15 11:09:11;;;;;;;36.95;23.73;;;;;;;;;;4899834;29;20025;-75
2021/12/15 11:11:38;;;;;;;38.63;24.70;;;;;;;;;;4899096;29;20032;-76
2021/12/15 11:14:23;;;;;;;38.75;24.58;;;;;;;;;;4898844;29;20028;-76
2021/12/15 11:17:09;;;;;;;38.92;24.30;;;;;;;;;;4897764;29;20046;-76
2021/12/15 11:19:44;;;;;;;38.08;23.38;;;;;;;;;;4898934;29;20035;-76
2021/12/15 11:22:29;;;;;;;40.05;22.58;;;;;;;;;;4899185;29;20996;-76
2021/12/15 11:24:55;;;;;;;38.42;23.23;;;;;;;;;;4897837;29;20029;-76
2021/12/15 11:27:21;;;;;;;44.25;23.63;;;;;;;;;;4898626;29;20104;-78
2021/12/15 11:29:47;;;;;;;37.05;22.73;;;;;;;;;;4896175;29;20051;-78
2021/12/15 11:32:31;;;;;;;38.28;24.00;;;;;;;;;;4890992;29;20400;-76
2021/12/15 11:35:20;;;;;;;43.28;23.23;;;;;;;;;;4893727;29;20560;-76
2021/12/15 11:37:48;;;;;;;39.53;22.77;;;;;;;;;;4892720;29;20080;-76
2021/12/15 11:40:16;;;;;;;41.55;22.35;;;;;;;;;;4895894;29;20388;-75
2021/12/15 11:42:43;;;;;;;41.05;22.55;;;;;;;;;;4896397;29;20020;-75
2021/12/15 11:45:11;;;;;;;35.95;19.13;;;;;;;;;;4896068;29;20551;-75
2021/12/15 11:47:37;;;;;;;38.38;19.25;;;;;;;;;;4896263;29;20028;-76
2021/12/15 11:50:20;;;;;;;35.35;20.50;;;;;;;;;;4894989;29;20032;-76
2021/12/15 11:52:48;;;;;;;37.10;20.00;;;;;;;;;;4882181;29;20496;-76
2021/12/15 11:55:23;;;;;;;36.78;19.98;;;;;;;;;;4894567;29;20047;-76
2021/12/15 11:57:49;;;;;;;35.90;19.90;;;;;;;;;;4889053;29;20027;-80
2021/12/15 12:00:18;;;;;;;33.30;19.52;;;;;;;;;;4892420;29;20408;-75
2021/12/15 12:02:51;;;;;;;33.85;17.77;;;;;;;;;;4864561;29;20080;-75
2021/12/15 12:05:22;;;;;;;32.72;18.38;;;;;;;;;;4876417;29;20595;-75
2021/12/15 12:07:48;;;;;;;35.35;17.63;;;;;;;;;;4869886;29;20104;-75
2021/12/15 12:10:20;;;;;;;30.10;17.98;;;;;;;;;;4859394;29;20124;-75
2021/12/15 12:12:53;;;;;;;28.40;16.88;;;;;;;;;;4867002;29;20517;-75
2021/12/15 12:15:24;;;;;;;28.70;16.35;;;;;;;;;;4861654;29;20041;-75
2021/12/15 12:17:51;;;;;;;41.47;16.83;;;;;;;;;;4872854;29;20396;-75
2021/12/15 12:20:23;;;;;;;31.83;17.83;;;;;;;;;;4871733;29;20042;-73
2021/12/15 12:22:50;;;;;;;33.53;18.08;;;;;;;;;;4892204;29;20247;-75
2021/12/15 12:25:19;;;;;;;35.00;18.80;;;;;;;;;;4877728;29;20040;-75
2021/12/15 12:27:45;;;;;;;29.45;16.10;;;;;;;;;;4878432;29;20029;-83
2021/12/15 12:30:13;;;;;;;30.98;17.67;;;;;;;;;;4869191;29;20029;-75
2021/12/15 12:32:40;;;;;;;31.92;17.23;;;;;;;;;;4876445;29;20029;-75
2021/12/15 12:35:08;;;;;;;28.10;15.65;;;;;;;;;;4878258;29;20454;-77
2021/12/15 12:45:38;;;;;;;25.92;15.90;;;;;;;;;;5713131;23;20028;-77
2021/12/15 12:59:44;;;;;;;21.48;13.27;;;;;;;;;;4898140;29;20040;-84
2021/12/15 13:02:46;;;;;;;19.95;11.45;;;;;;;;;;4897826;29;20413;-84
2021/12/15 13:05:33;;;;;;;26.23;11.82;;;;;;;;;;4898505;29;20481;-85
2021/12/15 13:08:00;;;;;;;22.15;11.38;;;;;;;;;;4898021;29;20056;-84
2021/12/15 13:10:49;;;;;;;25.92;11.68;;;;;;;;;;4898235;29;20039;-84
2021/12/15 13:13:17;;;;;;;23.70;12.25;;;;;;;;;;4898060;29;20037;-84
2021/12/15 13:15:44;;;;;;;29.75;12.55;;;;;;;;;;4897511;29;20400;-84
2021/12/15 13:18:13;;;;;;;31.20;12.13;;;;;;;;;;4898096;29;20036;-84
2021/12/15 13:20:40;;;;;;;21.30;11.82;;;;;;;;;;4897445;29;20036;-83
2021/12/15 13:23:28;;;;;;;21.90;11.65;;;;;;;;;;4897945;29;20392;-84
2021/12/15 13:28:48;;;;;;;24.75;11.77;;;;;;;;;;4897345;29;20051;-85
2021/12/15 13:31:26;;;;;;;27.17;10.93;;;;;;;;;;4897673;29;20028;-85
2021/12/15 13:33:57;;;;;;;23.83;12.38;;;;;;;;;;4897835;29;20049;-84
2021/12/15 13:36:23;;;;;;;30.27;10.82;;;;;;;;;;4897844;29;20064;-85
2021/12/15 13:38:49;;;;;;;16.50;9.98;;;;;;;;;;4897829;29;20087;-85
2021/12/15 13:41:38;;;;;;;22.27;11.68;;;;;;;;;;4897519;29;20020;-85
2021/12/15 13:44:16;;;;;;;21.48;11.07;;;;;;;;;;4897275;29;20100;-84
2021/12/15 13:46:45;;;;;;;23.85;13.45;;;;;;;;;;4897570;29;20067;-84
2021/12/15 13:49:24;;;;;;;20.20;12.25;;;;;;;;;;4890241;29;20047;-84
2021/12/15 13:51:56;;;;;;;27.90;13.27;;;;;;;;;;4880625;29;20482;-84
2021/12/15 13:54:37;;;;;;;29.77;15.05;;;;;;;;;;4882916;29;20161;-85
2021/12/15 13:57:12;;;;;;;31.02;16.58;;;;;;;;;;4882712;29;20025;-85
2021/12/15 13:59:43;;;;;;;31.75;14.50;;;;;;;;;;4882596;29;20531;-85
2021/12/15 14:02:14;;;;;;;28.70;14.93;;;;;;;;;;4882049;29;20029;-84
2021/12/15 14:05:00;;;;;;;24.15;12.93;;;;;;;;;;4874807;29;20034;-85
2021/12/15 14:07:29;;;;;;;30.33;11.82;;;;;;;;;;4860361;29;20045;-85
2021/12/15 14:09:59;;;;;;;25.48;10.95;;;;;;;;;;4863667;29;20041;-85
2021/12/15 14:12:44;;;;;;;26.27;10.18;;;;;;;;;;4871626;29;20029;-85
2021/12/15 14:15:16;;;;;;;22.80;11.05;;;;;;;;;;4880979;29;20449;-85
2021/12/15 14:17:42;;;;;;;48.03;11.17;;;;;;;;;;4882554;29;20033;-85
2021/12/15 14:20:16;;;;;;;19.17;10.18;;;;;;;;;;4882009;29;20374;-85
2021/12/15 14:22:42;;;;;;;22.77;11.27;;;;;;;;;;4863768;29;20026;-85
2021/12/15 14:25:09;;;;;;;18.20;10.95;;;;;;;;;;4863423;29;20072;-85
2021/12/15 14:27:35;;;;;;;16.13;10.93;;;;;;;;;;4863184;29;20057;-85
2021/12/15 14:30:01;;;;;;;19.33;11.30;;;;;;;;;;4877706;29;20113;-85
2021/12/15 14:32:28;;;;;;;23.42;13.38;;;;;;;;;;4863534;29;20029;-85
2021/12/15 14:34:54;;;;;;;30.67;13.20;;;;;;;;;;4868155;29;20108;-85
2021/12/15 14:37:20;;;;;;;21.05;13.57;;;;;;;;;;4882192;29;20096;-85
2021/12/15 14:39:48;;;;;;;22.25;13.57;;;;;;;;;;4880678;29;20029;-85
2021/12/15 14:42:18;;;;;;;32.30;15.15;;;;;;;;;;4881682;29;20426;-85
2021/12/15 14:44:47;;;;;;;26.63;12.75;;;;;;;;;;4881834;29;20033;-85
2021/12/15 14:47:15;;;;;;;21.27;13.77;;;;;;;;;;4881878;29;20033;-85
2021/12/15 14:49:43;;;;;;;24.50;14.02;;;;;;;;;;4881320;29;20073;-84
2021/12/15 14:52:11;;;;;;;24.67;13.07;;;;;;;;;;4880693;29;20080;-87
2021/12/15 14:54:37;;;;;;;19.17;12.40;;;;;;;;;;4880531;29;20443;-87
2021/12/15 14:57:11;;;;;;;27.42;14.63;;;;;;;;;;4879243;29;20025;-87
2021/12/15 14:59:40;;;;;;;25.42;13.80;;;;;;;;;;4866823;29;20402;-87
2021/12/15 15:02:09;;;;;;;30.88;13.45;;;;;;;;;;4878025;29;20051;-83
2021/12/15 15:04:37;;;;;;;25.23;14.85;;;;;;;;;;4880749;29;20029;-85
2021/12/15 15:07:05;;;;;;;26.67;12.77;;;;;;;;;;4881284;29;20036;-86
2021/12/15 15:09:37;;;;;;;18.95;11.52;;;;;;;;;;4880631;29;20171;-87
2021/12/15 15:12:17;;;;;;;19.60;12.73;;;;;;;;;;4880538;29;20033;-85
2021/12/15 15:14:56;;;;;;;21.63;12.93;;;;;;;;;;4881076;29;20376;-86
2021/12/15 15:17:27;;;;;;;18.35;12.15;;;;;;;;;;4881253;29;20036;-86
2021/12/15 15:19:58;;;;;;;19.30;11.83;;;;;;;;;;4879914;29;20427;-86
2021/12/15 15:22:27;;;;;;;23.93;11.80;;;;;;;;;;4881227;29;20268;-86
2021/12/15 15:24:54;;;;;;;18.85;11.30;;;;;;;;;;4879941;29;20029;-86
2021/12/15 15:27:32;;;;;;;18.80;10.32;;;;;;;;;;4880362;29;20115;-86
2021/12/15 15:30:01;;;;;;;20.17;11.18;;;;;;;;;;4881211;29;20025;-84
2021/12/15 15:32:29;;;;;;;19.02;10.60;;;;;;;;;;4881077;29;20025;-87
2021/12/15 15:34:56;;;;;;;21.52;12.27;;;;;;;;;;4870824;29;20025;-86
2021/12/15 15:37:22;;;;;;;21.48;12.55;;;;;;;;;;4880025;29;20052;-85
2021/12/15 15:40:01;;;;;;;23.80;13.32;;;;;;;;;;4879992;29;20068;-85
2021/12/15 15:42:27;;;;;;;22.50;13.20;;;;;;;;;;4880617;29;20481;-85
2021/12/15 15:44:54;;;;;;;22.55;13.27;;;;;;;;;;4880675;29;20029;-86
2021/12/15 15:47:21;;;;;;;22.88;11.90;;;;;;;;;;4866545;29;20056;-83
2021/12/15 15:49:51;;;;;;;19.50;10.85;;;;;;;;;;4880130;29;20049;-85
2021/12/15 15:52:17;;;;;;;22.13;10.75;;;;;;;;;;4880638;29;20037;-83
2021/12/15 15:54:43;;;;;;;17.67;10.23;;;;;;;;;;4880017;29;20065;-85
2021/12/15 15:57:09;;;;;;;22.25;11.10;;;;;;;;;;4873841;29;20032;-85
2021/12/15 15:59:39;;;;;;;22.52;11.65;;;;;;;;;;4861887;29;20112;-85
2021/12/15 16:02:05;;;;;;;21.48;11.88;;;;;;;;;;4871711;29;20025;-85
2021/12/15 16:04:31;;;;;;;21.98;11.70;;;;;;;;;;4880294;29;20385;-85
2021/12/15 16:06:58;;;;;;;20.73;12.48;;;;;;;;;;4880523;29;20506;-85